createdAt,value
2022-10-22T00:00:49.306Z,7.70
2022-10-22T00:06:10.667Z,7.13
2022-10-22T00:11:15.903Z,7.40
2022-10-22T00:16:20.554Z,8.80
2022-10-22T00:21:24.325Z,8.13
2022-10-22T00:26:27.914Z,9.35
2022-10-22T00:31:32.634Z,8.13
2022-10-22T00:36:36.117Z,7.68
2022-10-22T00:41:39.870Z,8.07
2022-10-22T00:46:44.745Z,7.55
2022-10-22T00:51:48.033Z,9.95
2022-10-22T00:56:51.365Z,9.15
2022-10-22T01:01:56.715Z,9.23
2022-10-22T01:07:00.300Z,9.13
2022-10-22T01:12:10.788Z,9.43
2022-10-22T01:17:23.566Z,8.88
2022-10-22T01:22:33.236Z,8.95
2022-10-22T01:27:44.351Z,9.18
2022-10-22T01:32:52.257Z,8.75
2022-10-22T01:37:59.586Z,8.38
2022-10-22T01:43:04.599Z,8.75
2022-10-22T01:48:23.534Z,8.45
2022-10-22T01:53:37.705Z,7.90
2022-10-22T01:58:45.968Z,7.55
2022-10-22T02:03:57.196Z,8.25
2022-10-22T02:09:03.484Z,8.45
2022-10-22T02:14:08.569Z,8.02
2022-10-22T02:19:18.830Z,8.70
2022-10-22T02:24:23.538Z,7.85
2022-10-22T02:29:29.728Z,8.38
2022-10-22T02:34:34.672Z,7.57
2022-10-22T02:39:39.827Z,7.72
2022-10-22T02:44:44.359Z,8.20
2022-10-22T02:49:49.229Z,7.78
2022-10-22T02:54:53.550Z,7.97
2022-10-22T02:59:58.099Z,7.53
2022-10-22T03:05:03.210Z,8.18
2022-10-22T03:10:07.729Z,7.68
2022-10-22T03:15:11.610Z,7.80
2022-10-22T03:20:16.368Z,8.27
2022-10-22T03:25:23.596Z,7.70
2022-10-22T03:30:28.425Z,8.27
2022-10-22T03:35:34.489Z,7.53
2022-10-22T03:40:37.874Z,7.65
2022-10-22T03:45:41.378Z,8.05
2022-10-22T03:50:46.084Z,8.15
2022-10-22T03:55:49.598Z,8.55
2022-10-22T04:00:53.305Z,7.60
2022-10-22T04:06:02.685Z,7.32
2022-10-22T04:11:06.445Z,8.10
2022-10-22T04:16:11.589Z,7.90
2022-10-22T04:21:18.813Z,8.57
2022-10-22T04:26:22.377Z,8.45
2022-10-22T04:31:26.933Z,8.55
2022-10-22T04:42:01.671Z,8.30
2022-10-22T04:47:05.085Z,8.20
2022-10-22T04:52:08.583Z,8.43
2022-10-22T04:57:14.498Z,7.93
2022-10-22T05:02:17.907Z,7.90
2022-10-22T05:07:21.257Z,8.68
2022-10-22T05:12:26.105Z,8.18
2022-10-22T05:17:29.637Z,7.60
2022-10-22T05:22:34.279Z,7.85
2022-10-22T05:27:39.205Z,7.88
2022-10-22T05:32:42.877Z,8.93
2022-10-22T05:37:46.196Z,8.63
2022-10-22T05:42:50.913Z,8.43
2022-10-22T05:47:54.301Z,8.00
2022-10-22T05:52:57.587Z,9.73
2022-10-22T05:58:02.642Z,7.32
2022-10-22T06:03:06.319Z,8.23
2022-10-22T06:08:18.101Z,8.25
2022-10-22T06:13:24.054Z,9.00
2022-10-22T06:18:27.370Z,8.50
2022-10-22T06:23:30.670Z,10.40
2022-10-22T06:28:35.987Z,8.88
2022-10-22T06:33:42.376Z,8.40
2022-10-22T06:38:45.987Z,8.38
2022-10-22T06:43:51.231Z,8.55
2022-10-22T06:48:57.271Z,9.02
2022-10-22T06:54:01.106Z,10.18
2022-10-22T06:59:05.691Z,11.38
2022-10-22T07:04:09.857Z,12.02
2022-10-22T07:09:13.449Z,10.73
2022-10-22T07:14:18.321Z,11.27
2022-10-22T07:19:21.642Z,10.38
2022-10-22T07:24:25.202Z,11.10
2022-10-22T07:29:30.156Z,10.93
2022-10-22T07:34:33.454Z,9.98
2022-10-22T07:39:36.930Z,8.77
2022-10-22T07:44:41.982Z,9.38
2022-10-22T07:49:45.444Z,10.75
2022-10-22T07:54:49.066Z,10.45
2022-10-22T07:59:53.913Z,10.88
2022-10-22T08:04:57.585Z,10.05
2022-10-22T08:10:00.957Z,10.63
2022-10-22T08:15:06.982Z,10.07
2022-10-22T08:20:11.367Z,10.07
2022-10-22T08:25:15.491Z,10.43
2022-10-22T08:30:20.781Z,10.07
2022-10-22T08:35:24.413Z,9.02
2022-10-22T08:40:33.013Z,10.18
2022-10-22T08:45:44.217Z,9.55
2022-10-22T08:50:49.584Z,9.45
2022-10-22T08:55:55.342Z,11.45
2022-10-22T09:01:02.916Z,10.18
2022-10-22T09:06:12.087Z,10.52
2022-10-22T09:11:23.090Z,9.57
2022-10-22T09:16:36.399Z,9.55
2022-10-22T09:21:49.882Z,9.73
2022-10-22T09:26:53.239Z,10.07
2022-10-22T09:31:57.846Z,11.07
2022-10-22T09:37:02.940Z,10.48
2022-10-22T09:42:06.568Z,9.77
2022-10-22T09:47:42.766Z,10.82
2022-10-22T09:53:01.211Z,10.33
2022-10-22T09:58:05.852Z,12.18
2022-10-22T10:03:17.880Z,13.45
2022-10-22T10:08:21.898Z,13.23
2022-10-22T10:13:45.680Z,12.18
2022-10-22T10:19:02.778Z,10.68
2022-10-22T10:24:17.676Z,11.57
2022-10-22T10:35:01.803Z,10.93
2022-10-22T10:40:19.148Z,9.02
2022-10-22T10:45:32.140Z,11.43
2022-10-22T10:50:45.063Z,10.75
2022-10-22T10:55:58.663Z,11.23
2022-10-22T11:01:09.558Z,11.35
2022-10-22T11:06:18.575Z,11.85
2022-10-22T11:11:31.162Z,13.30
2022-10-22T11:16:38.637Z,13.13
2022-10-22T11:21:50.831Z,12.20
2022-10-22T11:26:59.028Z,13.15
2022-10-22T11:32:04.054Z,12.43
2022-10-22T11:37:11.851Z,12.55
2022-10-22T11:42:20.719Z,12.15
2022-10-22T11:47:26.955Z,11.43
2022-10-22T11:52:49.052Z,13.98
2022-10-22T11:57:52.289Z,12.15
2022-10-22T12:03:06.344Z,12.45
2022-10-22T12:08:27.989Z,13.27
2022-10-22T12:13:33.981Z,9.52
2022-10-22T12:18:45.409Z,10.13
2022-10-22T12:23:52.054Z,9.10
2022-10-22T12:28:59.710Z,7.82
2022-10-22T12:34:03.710Z,6.25
2022-10-22T12:39:15.304Z,6.93
2022-10-22T12:44:19.612Z,5.47
2022-10-22T12:49:26.221Z,5.65
2022-10-22T12:54:33.110Z,5.22
2022-10-22T12:59:39.792Z,5.20
2022-10-22T13:04:43.402Z,5.88
2022-10-22T13:09:49.694Z,5.60
2022-10-22T13:14:53.224Z,5.43
2022-10-22T13:20:05.867Z,6.30
2022-10-22T13:30:31.153Z,6.93
2022-10-22T13:35:38.332Z,7.60
2022-10-22T13:40:43.033Z,7.05
2022-10-22T13:45:47.744Z,7.20
2022-10-22T13:50:52.801Z,8.57
2022-10-22T13:55:57.733Z,7.97
2022-10-22T14:01:02.963Z,7.82
2022-10-22T14:06:13.229Z,7.47
2022-10-22T14:11:18.610Z,8.05
2022-10-22T14:16:25.191Z,7.50
2022-10-22T14:21:31.165Z,8.68
2022-10-22T14:26:35.889Z,9.77
2022-10-22T14:36:44.691Z,8.35
2022-10-22T14:41:49.601Z,7.63
2022-10-22T14:46:56.250Z,8.25
2022-10-22T14:51:59.602Z,8.27
2022-10-22T14:57:04.866Z,9.23
2022-10-22T15:02:09.845Z,7.47
2022-10-22T15:07:18.231Z,9.15
2022-10-22T15:12:23.861Z,8.65
2022-10-22T15:17:28.162Z,9.43
2022-10-22T15:22:35.175Z,9.85
2022-10-22T15:27:41.580Z,9.35
2022-10-22T15:32:44.829Z,9.20
2022-10-22T15:37:51.639Z,9.90
2022-10-22T15:42:56.839Z,9.82
2022-10-22T15:48:01.341Z,9.57
2022-10-22T15:53:04.929Z,10.27
2022-10-22T15:58:09.586Z,10.05
2022-10-22T16:03:12.926Z,9.65
2022-10-22T16:08:16.819Z,9.98
2022-10-22T16:13:23.868Z,10.38
2022-10-22T16:18:27.151Z,9.60
2022-10-22T16:23:30.763Z,10.38
2022-10-22T16:28:36.566Z,11.45
2022-10-22T16:33:46.453Z,10.98
2022-10-22T16:38:52.663Z,11.95
2022-10-22T16:43:57.332Z,11.02
2022-10-22T16:49:00.705Z,10.45
2022-10-22T16:54:06.868Z,11.13
2022-10-22T16:59:14.502Z,10.10
2022-10-22T17:04:18.088Z,10.43
2022-10-22T17:09:23.215Z,10.38
2022-10-22T17:14:28.224Z,11.43
2022-10-22T17:19:31.899Z,11.10
2022-10-22T17:24:35.638Z,10.40
2022-10-22T17:29:40.540Z,10.13
2022-10-22T17:34:43.869Z,9.40
2022-10-22T17:39:47.894Z,10.18
2022-10-22T17:44:52.549Z,10.07
2022-10-22T17:49:55.902Z,10.95
2022-10-22T17:54:59.195Z,11.23
2022-10-22T18:00:03.940Z,10.07
2022-10-22T18:05:08.366Z,9.05
2022-10-22T18:10:12.397Z,9.60
2022-10-22T18:15:17.456Z,9.10
2022-10-22T18:20:20.984Z,8.68
2022-10-22T18:25:24.400Z,9.75
2022-10-22T18:30:29.339Z,8.60
2022-10-22T18:35:33.178Z,9.70
2022-10-22T18:40:37.010Z,8.82
2022-10-22T18:45:43.942Z,10.23
2022-10-22T18:50:48.100Z,9.77
2022-10-22T18:55:51.407Z,8.82
2022-10-22T19:00:56.079Z,10.10
2022-10-22T19:06:00.146Z,10.50
2022-10-22T19:11:09.583Z,11.43
2022-10-22T19:16:23.552Z,9.32
2022-10-22T19:21:26.931Z,9.70
2022-10-22T19:26:31.555Z,9.00
2022-10-22T19:31:36.289Z,8.48
2022-10-22T19:36:39.581Z,7.03
2022-10-22T19:41:43.005Z,8.20
2022-10-22T19:46:47.961Z,7.70
2022-10-22T19:51:51.628Z,8.25
2022-10-22T19:56:55.117Z,8.77
2022-10-22T20:02:00.525Z,8.63
2022-10-22T20:07:04.363Z,8.90
2022-10-22T20:12:08.374Z,8.77
2022-10-22T20:17:13.137Z,8.68
2022-10-22T20:22:18.716Z,8.57
2022-10-22T20:27:22.475Z,8.35
2022-10-22T20:32:27.988Z,8.18
2022-10-22T20:37:31.551Z,8.60
2022-10-22T20:42:35.723Z,8.60
2022-10-22T20:47:51.349Z,8.32
2022-10-22T20:53:01.558Z,8.93
2022-10-22T20:58:04.936Z,8.35
2022-10-22T21:03:09.557Z,9.48
2022-10-22T21:08:17.314Z,8.02
2022-10-22T21:13:20.678Z,8.93
2022-10-22T21:18:25.655Z,8.73
2022-10-22T21:23:29.004Z,9.85
2022-10-22T21:28:35.370Z,8.48
2022-10-22T21:33:41.006Z,8.60
2022-10-22T21:38:44.476Z,9.18
2022-10-22T21:43:48.335Z,8.38
2022-10-22T21:48:55.998Z,8.45
2022-10-22T21:53:59.397Z,9.00
2022-10-22T21:59:03.206Z,8.95
2022-10-22T22:04:08.264Z,8.77
2022-10-22T22:09:12.003Z,8.75
2022-10-22T22:14:15.533Z,9.07
2022-10-22T22:19:20.151Z,9.18
2022-10-22T22:24:23.433Z,8.98
2022-10-22T22:29:27.040Z,9.93
2022-10-22T22:34:31.825Z,9.60
2022-10-22T22:39:35.231Z,8.43
2022-10-22T22:44:40.044Z,9.13
2022-10-22T22:49:44.652Z,9.18
2022-10-22T22:54:48.690Z,8.30
2022-10-22T22:59:52.283Z,8.82
2022-10-22T23:04:57.012Z,9.90
2022-10-22T23:10:00.561Z,9.27
2022-10-22T23:15:04.385Z,9.70
2022-10-22T23:20:10.284Z,8.68
2022-10-22T23:25:13.604Z,9.10
2022-10-22T23:30:17.112Z,8.70
2022-10-22T23:35:22.220Z,9.15
2022-10-22T23:40:25.851Z,8.55
2022-10-22T23:45:29.663Z,7.80
2022-10-22T23:50:37.442Z,8.02
2022-10-22T23:55:41.088Z,8.25
